CYHU/YHU METAR and TAF weather

Enter ICAO airport designator
Station Type Date Time Source
CYHU METAR 2019/04/21 22:00 UTC NOAA

CYHU 212200Z AUTO 24008KT 9SM OVC075 15/10 A3003 RMK SLP171


Station Type Date Time Source
CYHU Decoded METAR 2019/04/21 22:00 UTC NOAA

Saint Hubert Airport , Canada (CYHU) 45-31N 073-25W
Apr 21, 2019 - 06:00 PM EDT / 2019.04.21 2200 UTC
Wind: from the WSW (240 degrees) at 9 MPH (8 KT):0
Visibility: 9 mile(s):0
Sky conditions: overcast
Temperature: 59 F (15 C)
Dew Point: 50 F (10 C)
Relative Humidity: 72%
Pressure (altimeter): 30.03 in. Hg (1016 hPa)
ob: CYHU 212200Z AUTO 24008KT 9SM OVC075 15/10 A3003 RMK SLP171
cycle: 22

Station Type Date Time Source
CYHU TAF 2019/04/21 18:42 UTC NOAA

TAF CYHU 211739Z 2118/2218 24012KT P6SM FEW025
TEMPO 2118/2119 BKN020
FM211900 25010KT P6SM BKN040
TEMPO 2119/2124 P6SM -SHRA
FM220000 33008KT P6SM SCT030
BECMG 2201/2203 36008KT
FM220900 01008KT P6SM FEW008 SCT015
TEMPO 2209/2213 3SM BR BKN008 OVC015
FM221300 02012KT P6SM BKN015
RMK FCST BASED ON AUTO OBS. NXT FCST BY 220000Z

Example: see airport list